Time;durP1;ratioP1;P1;durP2;ratioP2;P2;SDS_P1;SDS_P2;PMS_P1;PMS_P2;Temp;Humidity;BMP_temperature;BMP_pressure;BME280_temperature;BME280_humidity;BME280_pressure;Samples;Min_cycle;Max_cycle;Signal;HPM_P1;HPM_P2
2023/06/10 00:00:56;;;;;;;1.70;1.60;;;17.60;48.70;16.90;95695.00;;;;5053235;28;20202;-56
2023/06/10 00:03:24;;;;;;;1.90;1.80;;;17.60;49.40;16.80;95695.00;;;;5053698;28;20732;-56
2023/06/10 00:05:52;;;;;;;1.27;1.27;;;17.50;49.30;16.80;95698.00;;;;5053587;28;20216;-56
2023/06/10 00:08:20;;;;;;;0.87;0.87;;;17.50;50.10;16.90;95694.00;;;;5053255;28;20192;-56
2023/06/10 00:10:47;;;;;;;1.57;1.47;;;;;16.70;95685.00;;;;5053092;28;20270;-56
2023/06/10 00:13:16;;;;;;;1.87;1.77;;;;;16.70;95685.00;;;;5053045;28;20274;-56
2023/06/10 00:15:43;;;;;;;2.27;1.67;;;;;16.80;95686.00;;;;5052948;28;20226;-56
2023/06/10 00:18:11;;;;;;;1.63;1.53;;;;;16.80;95688.00;;;;5053219;28;20262;-56
2023/06/10 00:20:39;;;;;;;1.50;1.43;;;;;16.80;95686.00;;;;5052955;28;20274;-56
2023/06/10 00:23:08;;;;;;;1.23;1.13;;;;;16.80;95688.00;;;;5053151;28;20196;-56
2023/06/10 00:25:35;;;;;;;3.50;2.43;;;;;16.80;95696.00;;;;5053023;28;20216;-56
2023/06/10 00:28:03;;;;;;;1.30;1.27;;;;;16.80;95689.00;;;;5053370;28;20199;-57
2023/06/10 00:30:30;;;;;;;2.20;1.57;;;;;16.80;95691.00;;;;5053258;28;20222;-56
2023/06/10 00:32:58;;;;;;;3.37;1.87;;;;;16.80;95693.00;;;;5053084;28;20203;-56
2023/06/10 00:35:25;;;;;;;1.90;1.80;;;;;16.70;95684.00;;;;5052763;28;20216;-56
2023/06/10 00:37:53;;;;;;;1.57;1.47;;;;;16.70;95678.00;;;;5052322;28;20200;-56
2023/06/10 00:40:21;;;;;;;1.03;1.03;;;;;16.70;95690.00;;;;5052770;28;20185;-57
2023/06/10 00:42:49;;;;;;;1.50;1.40;;;;;16.60;95687.00;;;;5052776;28;20199;-57
2023/06/10 00:45:16;;;;;;;1.03;1.03;;;;;16.50;95684.00;;;;5052906;28;20219;-56
2023/06/10 00:47:44;;;;;;;0.70;0.70;;;;;16.40;95684.00;;;;5052963;28;20203;-56
2023/06/10 00:50:12;;;;;;;2.03;1.70;;;;;16.40;95688.00;;;;5052958;28;20215;-57
2023/06/10 00:52:40;;;;;;;1.57;1.47;;;;;16.40;95691.00;;;;5052702;28;20655;-56
2023/06/10 00:55:08;;;;;;;1.57;1.47;;;;;16.30;95689.00;;;;5051316;28;20246;-56
2023/06/10 00:57:38;;;;;;;2.00;1.90;;;;;16.30;95684.00;;;;5052946;28;20709;-56
2023/06/10 01:00:08;;;;;;;1.27;1.27;;;;;16.30;95687.00;;;;5052956;28;20211;-56
2023/06/10 01:02:36;;;;;;;1.13;1.13;;;;;16.20;95689.00;;;;5052589;28;20200;-56
2023/06/10 01:05:05;;;;;;;1.67;1.57;;;;;16.10;95690.00;;;;5052377;28;20279;-57
2023/06/10 01:07:38;;;;;;;1.10;1.10;;;;;16.10;95684.00;;;;5053198;28;20259;-56
2023/06/10 01:10:11;;;;;;;1.67;1.57;;;;;16.10;95688.00;;;;5052561;28;20200;-56
2023/06/10 01:12:48;;;;;;;0.90;0.90;;;;;16.00;95687.00;;;;5052846;28;20596;-56
2023/06/10 01:15:17;;;;;;;0.87;0.87;;;;;15.90;95684.00;;;;5056342;28;20184;-56
2023/06/10 01:18:01;;;;;;;1.17;1.17;;;;;15.90;95684.00;;;;5056163;28;20671;-56
2023/06/10 01:20:31;;;;;;;1.37;1.33;;;;;15.90;95681.00;;;;5056096;28;20187;-56
2023/06/10 01:23:02;;;;;;;1.67;1.57;;;;;15.90;95677.00;;;;5056407;28;20266;-56
2023/06/10 01:25:32;;;;;;;1.63;1.53;;;;;15.90;95679.00;;;;5056173;28;20614;-56
2023/06/10 01:28:07;;;;;;;1.20;1.20;;;;;15.80;95674.00;;;;5056168;28;20192;-56
2023/06/10 01:30:43;;;;;;;1.30;1.30;;;;;15.80;95677.00;;;;5055807;28;20208;-56
2023/06/10 01:33:13;;;;;;;1.23;1.23;;;;;15.90;95683.00;;;;5056137;28;20188;-56
2023/06/10 01:35:42;;;;;;;0.80;0.80;;;;;15.70;95674.00;;;;5056231;28;20274;-56
2023/06/10 01:38:11;;;;;;;1.43;1.43;;;;;15.70;95693.00;;;;5055819;28;20204;-56
2023/06/10 01:40:40;;;;;;;1.17;1.17;;;;;15.70;95692.00;;;;5055880;28;20196;-56
2023/06/10 01:43:07;;;;;;;1.57;1.47;;;16.30;52.80;15.60;95683.00;;;;5055871;28;20196;-56
2023/06/10 01:45:34;;;;;;;1.30;1.30;;;16.20;53.40;15.50;95689.00;;;;5055559;28;20216;-56
2023/06/10 01:48:01;;;;;;;1.53;1.43;;;16.20;53.60;15.50;95688.00;;;;5055542;28;20192;-55
2023/06/10 01:50:28;;;;;;;2.33;2.13;;;16.20;53.90;15.50;95686.00;;;;5055445;28;20224;-55
2023/06/10 01:52:55;;;;;;;1.63;1.53;;;16.20;53.90;15.40;95695.00;;;;5055415;28;20656;-55
2023/06/10 01:55:23;;;;;;;2.00;1.90;;;16.10;54.20;15.40;95694.00;;;;5055247;28;20215;-55
2023/06/10 01:57:51;;;;;;;1.43;1.40;;;;;15.40;95691.00;;;;5055240;28;20199;-56
2023/06/10 02:00:19;;;;;;;1.53;1.43;;;;;15.30;95693.00;;;;5055299;28;20287;-56
2023/06/10 02:02:46;;;;;;;1.20;1.20;;;;;15.30;95684.00;;;;5055544;28;20192;-57
2023/06/10 02:05:14;;;;;;;1.23;1.23;;;;;15.40;95698.00;;;;5055095;28;20204;-56
2023/06/10 02:07:41;;;;;;;1.10;1.10;;;;;15.30;95691.00;;;;5055467;28;20172;-56
2023/06/10 02:10:09;;;;;;;1.07;1.07;;;;;15.20;95688.00;;;;5054976;28;20220;-56
2023/06/10 02:12:38;;;;;;;1.87;1.77;;;;;15.20;95698.00;;;;5055038;28;20188;-56
2023/06/10 02:15:06;;;;;;;1.20;1.20;;;;;15.20;95694.00;;;;5055491;28;20200;-56
2023/06/10 02:17:33;;;;;;;1.00;1.00;;;;;15.10;95701.00;;;;5055083;28;20233;-56
2023/06/10 02:20:05;;;;;;;2.03;1.77;;;;;15.00;95705.00;;;;5054936;28;20555;-56
2023/06/10 02:22:32;;;;;;;1.00;1.00;;;15.70;54.60;14.90;95699.00;;;;5054926;28;20184;-56
2023/06/10 02:24:59;;;;;;;1.53;1.43;;;15.60;55.00;14.80;95705.00;;;;5054750;28;20192;-57
2023/06/10 02:27:27;;;;;;;1.10;1.10;;;15.50;55.80;14.70;95704.00;;;;5054803;28;20192;-56
2023/06/10 02:29:55;;;;;;;1.60;1.50;;;15.40;56.20;14.80;95710.00;;;;5054703;28;20212;-56
2023/06/10 02:32:22;;;;;;;1.67;1.57;;;15.40;56.60;14.80;95707.00;;;;5055135;28;20196;-56
2023/06/10 02:34:49;;;;;;;1.47;1.37;;;15.40;56.90;14.80;95699.00;;;;5054596;28;20192;-56
2023/06/10 02:37:16;;;;;;;1.23;1.23;;;15.40;56.30;14.90;95702.00;;;;5054806;28;20211;-56
2023/06/10 02:39:44;;;;;;;1.27;1.27;;;15.50;56.20;15.00;95710.00;;;;5054858;28;20566;-56
2023/06/10 02:42:11;;;;;;;1.13;1.13;;;15.60;55.80;15.00;95706.00;;;;5054546;28;20191;-56
2023/06/10 02:44:39;;;;;;;1.57;1.47;;;15.60;55.70;15.00;95716.00;;;;5054567;28;20370;-56
2023/06/10 02:47:08;;;;;;;1.37;1.27;;;15.60;55.50;15.10;95711.00;;;;5054541;28;20204;-56
2023/06/10 02:49:35;;;;;;;1.00;1.00;;;15.70;55.50;15.10;95710.00;;;;5054626;28;20195;-56
2023/06/10 02:52:02;;;;;;;1.27;1.27;;;15.70;55.50;14.90;95708.00;;;;5054899;28;20188;-56
2023/06/10 02:54:29;;;;;;;1.30;1.23;;;15.60;54.90;14.80;95720.00;;;;5054354;28;20215;-56
2023/06/10 02:56:56;;;;;;;1.27;1.23;;;15.50;55.90;14.70;95711.00;;;;5054142;28;20212;-56
2023/06/10 02:59:23;;;;;;;9.80;1.67;;;15.40;57.00;14.70;95714.00;;;;5054236;28;20195;-56
2023/06/10 03:01:50;;;;;;;1.70;1.60;;;15.30;56.80;14.70;95715.00;;;;5054104;28;20250;-56
2023/06/10 03:04:20;;;;;;;1.97;1.87;;;15.30;56.90;14.80;95714.00;;;;5054106;28;20191;-56
2023/06/10 03:06:47;;;;;;;1.50;1.40;;;15.40;56.10;14.60;95719.00;;;;5054027;28;20629;-56
2023/06/10 03:09:14;;;;;;;1.30;1.20;;;15.30;59.40;14.60;95716.00;;;;5054275;28;20241;-56
2023/06/10 03:11:41;;;;;;;1.77;1.63;;;15.20;56.50;14.70;95718.00;;;;5053883;28;20223;-56
2023/06/10 03:14:08;;;;;;;0.80;0.80;;;15.30;56.60;14.60;95725.00;;;;5054099;28;20196;-56
2023/06/10 03:16:35;;;;;;;1.00;1.00;;;15.30;56.40;14.50;95723.00;;;;5053841;28;20204;-56
2023/06/10 03:19:02;;;;;;;1.00;1.00;;;15.20;56.30;14.40;95718.00;;;;5054568;28;20215;-56
2023/06/10 03:21:31;;;;;;;1.33;1.23;;;15.20;60.30;14.40;95719.00;;;;5054033;28;20200;-57
2023/06/10 03:23:58;;;;;;;1.77;1.67;;;15.10;56.80;14.40;95714.00;;;;5054502;28;20267;-57
2023/06/10 03:26:25;;;;;;;1.47;1.40;;;;;14.40;95728.00;;;;5053637;28;20207;-57
2023/06/10 03:28:52;;;;;;;1.97;1.87;;;15.00;56.50;14.30;95719.00;;;;5053616;28;20192;-55
2023/06/10 03:31:20;;;;;;;1.57;1.50;;;15.00;57.20;14.40;95721.00;;;;5053491;28;20220;-55
2023/06/10 03:33:47;;;;;;;1.53;1.43;;;15.00;57.50;14.40;95721.00;;;;5053876;28;20184;-56
2023/06/10 03:36:15;;;;;;;2.73;2.10;;;15.10;57.20;14.40;95724.00;;;;5053076;28;20208;-55
2023/06/10 03:38:43;;;;;;;1.00;1.00;;;15.10;57.00;14.50;95720.00;;;;5053439;28;20246;-55
2023/06/10 03:41:10;;;;;;;1.20;1.20;;;15.10;56.90;14.50;95728.00;;;;5053407;28;20189;-56
2023/06/10 03:43:40;;;;;;;1.23;1.17;;;15.10;56.60;14.50;95722.00;;;;5053760;28;20257;-56
2023/06/10 03:46:07;;;;;;;1.43;1.33;;;15.10;56.50;14.50;95723.00;;;;5053315;28;20258;-56
2023/06/10 03:48:34;;;;;;;1.00;1.00;;;15.10;56.60;14.50;95738.00;;;;5053359;28;20199;-58
2023/06/10 03:51:01;;;;;;;0.90;0.90;;;15.10;56.30;14.40;95736.00;;;;5052005;28;20212;-56
2023/06/10 03:53:28;;;;;;;1.73;1.63;;;15.10;56.70;14.40;95741.00;;;;5053916;28;20192;-55
2023/06/10 03:55:57;;;;;;;2.23;2.13;;;15.10;56.40;14.50;95738.00;;;;5053340;28;20710;-56
2023/06/10 03:58:24;;;;;;;1.40;1.40;;;15.10;56.60;14.40;95741.00;;;;5053313;28;20223;-56
2023/06/10 04:00:51;;;;;;;1.17;1.17;;;15.00;56.70;14.30;95739.00;;;;5053450;28;20200;-56
2023/06/10 04:03:21;;;;;;;1.67;1.57;;;15.00;56.90;14.20;95745.00;;;;5053227;28;20583;-56
2023/06/10 04:05:48;;;;;;;1.00;1.00;;;14.90;57.10;14.30;95738.00;;;;5053075;28;20290;-56
2023/06/10 04:08:15;;;;;;;2.07;1.93;;;14.90;58.30;14.40;95743.00;;;;5053154;28;20188;-56
2023/06/10 04:10:42;;;;;;;1.37;1.27;;;15.00;57.40;14.50;95737.00;;;;5053063;28;20220;-56
2023/06/10 04:13:10;;;;;;;1.57;1.47;;;15.00;57.20;14.50;95737.00;;;;5053144;28;20254;-56
2023/06/10 04:15:37;;;;;;;3.03;1.80;;;15.10;57.20;14.50;95738.00;;;;5053035;28;20208;-56
2023/06/10 04:18:05;;;;;;;1.27;1.27;;;15.10;56.90;14.60;95745.00;;;;5053091;28;20184;-56
2023/06/10 04:20:32;;;;;;;1.37;1.30;;;15.20;56.60;14.50;95745.00;;;;5053042;28;20192;-56
2023/06/10 04:23:01;;;;;;;1.80;1.57;;;15.20;56.60;14.60;95746.00;;;;5051616;28;20555;-56
2023/06/10 04:25:28;;;;;;;1.80;1.70;;;15.20;56.60;14.70;95747.00;;;;5051639;28;20212;-56
2023/06/10 04:27:55;;;;;;;1.40;1.40;;;15.20;55.70;14.70;95747.00;;;;5053005;28;20237;-56
2023/06/10 04:30:24;;;;;;;1.10;1.10;;;15.20;57.30;14.70;95745.00;;;;5053100;28;20242;-56
2023/06/10 04:32:51;;;;;;;1.83;1.33;;;15.30;56.40;14.70;95750.00;;;;5052931;28;20242;-56
2023/06/10 04:35:19;;;;;;;1.30;1.30;;;15.30;56.20;14.80;95749.00;;;;5053353;28;20208;-56
2023/06/10 04:37:46;;;;;;;1.47;1.43;;;15.30;56.00;14.80;95733.00;;;;5053164;28;20180;-55
2023/06/10 04:40:13;;;;;;;1.57;1.47;;;15.30;56.10;14.70;95752.00;;;;5052881;28;20192;-56
2023/06/10 04:42:40;;;;;;;1.03;1.03;;;15.30;56.00;14.70;95750.00;;;;5052912;28;20196;-56
2023/06/10 04:45:09;;;;;;;1.23;1.17;;;15.30;56.30;14.80;95748.00;;;;5052810;28;20192;-56
2023/06/10 04:47:37;;;;;;;1.63;1.53;;;15.40;56.50;14.70;95750.00;;;;5053150;28;20193;-56
2023/06/10 04:50:05;;;;;;;1.30;1.20;;;15.30;56.90;14.90;95755.00;;;;5056427;28;20188;-56
2023/06/10 04:52:33;;;;;;;1.63;1.53;;;15.40;56.10;14.90;95752.00;;;;5056673;28;20246;-56
2023/06/10 04:55:00;;;;;;;1.43;1.40;;;15.50;56.20;14.90;95756.00;;;;5056599;28;20270;-56
2023/06/10 04:57:27;;;;;;;1.80;1.70;;;15.60;56.20;15.00;95750.00;;;;5056559;28;20550;-56
2023/06/10 04:59:54;;;;;;;1.47;1.37;;;15.60;55.90;15.10;95753.00;;;;5056494;28;20191;-56
2023/06/10 05:02:21;;;;;;;1.63;1.53;;;15.70;55.80;15.20;95744.00;;;;5056476;28;20228;-56
2023/06/10 05:04:50;;;;;;;1.60;1.50;;;15.70;55.40;15.10;95751.00;;;;5056442;28;20200;-56
2023/06/10 05:07:17;;;;;;;1.53;1.43;;;15.70;55.50;15.30;95751.00;;;;5056144;28;20208;-56
2023/06/10 05:09:45;;;;;;;3.40;1.43;;;15.70;56.50;15.40;95746.00;;;;5056293;28;20192;-60
2023/06/10 05:12:12;;;;;;;1.17;1.17;;;16.00;55.00;15.40;95756.00;;;;5056010;28;20247;-55
2023/06/10 05:14:39;;;;;;;1.13;1.13;;;16.10;55.10;15.50;95754.00;;;;5054908;28;20195;-56
2023/06/10 05:17:06;;;;;;;1.77;1.67;;;16.10;55.70;15.60;95757.00;;;;5056126;28;20208;-56
2023/06/10 05:19:35;;;;;;;2.13;1.97;;;16.10;55.30;15.70;95756.00;;;;5056344;28;20210;-56
2023/06/10 05:22:04;;;;;;;1.37;1.27;;;16.30;54.40;15.70;95749.00;;;;5056603;28;20188;-56
2023/06/10 05:24:31;;;;;;;1.47;1.43;;;16.40;54.30;15.80;95759.00;;;;5054727;28;20249;-56
2023/06/10 05:26:59;;;;;;;1.30;1.30;;;16.40;54.10;15.80;95759.00;;;;5055918;28;20208;-56
2023/06/10 05:29:26;;;;;;;2.03;1.93;;;16.30;54.50;15.80;95767.00;;;;5056264;28;20195;-57
2023/06/10 05:31:56;;;;;;;1.80;1.70;;;16.40;54.30;16.00;95772.00;;;;5055861;28;20220;-57
2023/06/10 05:34:23;;;;;;;0.93;0.93;;;16.50;54.00;16.00;95770.00;;;;5055847;28;20270;-56
2023/06/10 05:36:50;;;;;;;2.17;1.60;;;16.50;53.90;16.00;95767.00;;;;5055773;28;20691;-56
2023/06/10 05:39:18;;;;;;;1.43;1.43;;;16.60;66.70;16.00;95770.00;;;;5055825;28;20184;-56
2023/06/10 05:41:46;;;;;;;1.90;1.80;;;16.40;54.70;15.80;95764.00;;;;5055955;28;20523;-56
2023/06/10 05:44:14;;;;;;;2.03;1.93;;;16.50;54.80;15.90;95768.00;;;;5055608;28;20222;-56
2023/06/10 05:46:41;;;;;;;1.07;1.00;;;16.50;54.90;15.90;95767.00;;;;5055474;28;20216;-56
2023/06/10 05:49:08;;;;;;;1.77;1.67;;;16.60;55.00;16.10;95775.00;;;;5055938;28;20192;-56
2023/06/10 05:51:35;;;;;;;5.63;2.43;;;16.80;54.30;16.40;95776.00;;;;5055685;28;20688;-56
2023/06/10 05:54:02;;;;;;;1.33;1.33;;;16.90;53.90;16.50;95773.00;;;;5055430;28;20185;-57
2023/06/10 05:56:30;;;;;;;1.63;1.53;;;17.00;53.40;16.60;95772.00;;;;5055264;28;20215;-57
2023/06/10 05:58:57;;;;;;;1.00;1.00;;;17.30;55.10;16.90;95770.00;;;;5055580;28;20533;-56
2023/06/10 06:01:24;;;;;;;2.57;2.37;;;17.40;51.30;17.00;95774.00;;;;5055256;28;20200;-57
2023/06/10 06:03:51;;;;;;;1.20;1.17;;;17.60;51.90;17.10;95775.00;;;;5055537;28;20242;-57
2023/06/10 06:06:20;;;;;;;1.13;1.13;;;17.60;51.10;17.10;95775.00;;;;5054991;28;20223;-57
2023/06/10 06:08:47;;;;;;;1.10;1.10;;;17.60;51.40;17.30;95775.00;;;;5053922;28;20770;-56
2023/06/10 06:11:14;;;;;;;2.13;1.50;;;17.90;50.40;17.40;95777.00;;;;5055117;28;20555;-56
2023/06/10 06:13:43;;;;;;;0.90;0.90;;;18.00;57.40;17.70;95777.00;;;;5055139;28;20205;-58
2023/06/10 06:16:10;;;;;;;1.33;1.23;;;18.10;55.60;17.80;95775.00;;;;5054952;28;20212;-56
2023/06/10 06:18:37;;;;;;;2.83;1.63;;;18.20;51.40;17.80;95776.00;;;;5055377;28;20196;-56
2023/06/10 06:21:04;;;;;;;0.90;0.90;;;18.20;52.30;17.80;95780.00;;;;5055175;28;20196;-56
2023/06/10 06:23:31;;;;;;;1.50;1.40;;;18.20;53.30;17.80;95774.00;;;;5055111;28;20334;-56
2023/06/10 06:25:58;;;;;;;1.33;1.30;;;18.30;52.20;17.70;95779.00;;;;5054723;28;20216;-56
2023/06/10 06:28:28;;;;;;;1.37;1.33;;;18.20;51.40;17.70;95787.00;;;;5055599;28;20678;-56
2023/06/10 06:30:57;;;;;;;1.37;1.20;;;18.30;51.50;17.90;95783.00;;;;5054969;28;20191;-56
2023/06/10 06:33:26;;;;;;;1.47;1.37;;;18.40;50.90;18.00;95783.00;;;;5055366;28;20200;-56
2023/06/10 06:35:53;;;;;;;1.40;1.30;;;18.60;50.60;18.20;95782.00;;;;5054953;28;20212;-56
2023/06/10 06:38:20;;;;;;;1.50;1.40;;;18.70;50.50;18.50;95781.00;;;;5053336;28;20192;-56
2023/06/10 06:40:47;;;;;;;1.13;1.13;;;19.00;50.30;18.70;95793.00;;;;5054491;28;20188;-56
2023/06/10 06:43:14;;;;;;;1.00;1.00;;;19.20;50.50;18.80;95789.00;;;;5054771;28;20551;-56
2023/06/10 06:45:41;;;;;;;1.00;1.00;;;19.30;50.00;19.00;95783.00;;;;5054369;28;20740;-56
2023/06/10 06:48:10;;;;;;;1.23;1.23;;;19.40;50.50;19.10;95784.00;;;;5054417;28;20188;-56
2023/06/10 06:50:37;;;;;;;1.10;1.10;;;19.50;49.20;19.00;95789.00;;;;5054650;28;20495;-56
2023/06/10 06:53:04;;;;;;;1.33;1.30;;;19.50;50.10;19.10;95784.00;;;;5054247;28;20220;-56
2023/06/10 06:55:31;;;;;;;1.60;1.53;;;19.60;49.30;19.10;95785.00;;;;5054754;28;20208;-56
2023/06/10 06:58:01;;;;;;;2.00;1.30;;;19.60;49.50;19.30;95795.00;;;;5054261;28;20184;-57
2023/06/10 07:00:28;;;;;;;2.27;2.10;;;19.80;63.10;19.30;95795.00;;;;5054131;28;20541;-56
2023/06/10 07:02:55;;;;;;;1.57;1.47;;;19.80;50.60;19.40;95789.00;;;;5054250;28;20188;-56
2023/06/10 07:05:25;;;;;;;0.90;0.90;;;19.90;48.40;19.40;95789.00;;;;5054238;28;20694;-56
2023/06/10 07:07:54;;;;;;;3.00;2.17;;;19.90;48.40;19.70;95784.00;;;;5054077;28;20663;-56
2023/06/10 07:10:22;;;;;;;0.90;0.90;;;;;19.90;95781.00;;;;5052794;28;20251;-56
2023/06/10 07:12:49;;;;;;;2.63;2.10;;;20.30;47.20;20.10;95779.00;;;;5053590;28;20273;-56
2023/06/10 07:15:16;;;;;;;1.17;1.17;;;20.40;47.40;20.20;95791.00;;;;5053921;28;20192;-56
2023/06/10 07:17:45;;;;;;;1.25;1.23;;;20.70;53.30;20.30;95775.00;;;;5053903;28;20188;-55
2023/06/10 07:20:14;;;;;;;0.82;0.82;;;20.70;45.20;20.30;95776.00;;;;5053864;28;20200;-56
2023/06/10 07:22:43;;;;;;;1.50;1.40;;;20.80;45.30;20.30;95789.00;;;;5053772;28;20563;-55
2023/06/10 07:25:10;;;;;;;2.00;1.40;;;20.80;45.80;20.50;95788.00;;;;5054045;28;20196;-55
2023/06/10 07:27:37;;;;;;;0.98;0.98;;;20.90;46.10;20.60;95788.00;;;;5058966;22;20235;-57
2023/06/10 07:30:08;;;;;;;1.50;1.42;;;21.00;45.00;20.60;95785.00;;;;5033705;28;20185;-56
2023/06/10 07:32:35;;;;;;;1.30;1.27;;;21.10;45.30;20.80;95792.00;;;;5033891;28;20204;-55
2023/06/10 07:35:02;;;;;;;0.70;0.70;;;21.20;45.00;20.80;95789.00;;;;5034000;28;20262;-56
2023/06/10 07:37:30;;;;;;;1.52;1.42;;;21.20;44.40;20.80;95782.00;;;;5033560;28;20224;-54
2023/06/10 07:39:59;;;;;;;1.05;1.05;;;21.30;44.10;21.00;95783.00;;;;5034056;28;20193;-54
2023/06/10 07:42:26;;;;;;;1.00;1.00;;;21.40;44.30;21.10;95775.00;;;;5033740;28;20197;-55
2023/06/10 07:44:53;;;;;;;1.13;1.05;;;21.50;43.00;21.10;95782.00;;;;5033519;28;20196;-55
2023/06/10 07:47:20;;;;;;;0.52;0.52;;;21.50;43.90;21.20;95780.00;;;;5033788;28;20299;-55
2023/06/10 07:49:47;;;;;;;1.42;1.38;;;21.60;44.10;21.60;95777.00;;;;5033413;28;20192;-55
2023/06/10 07:52:14;;;;;;;0.82;0.82;;;21.90;42.60;21.30;95779.00;;;;5033881;28;20688;-55
2023/06/10 07:54:41;;;;;;;1.10;1.05;;;21.70;41.90;21.50;95782.00;;;;5033529;28;20258;-54
2023/06/10 07:57:09;;;;;;;1.13;1.13;;;21.90;42.70;21.60;95782.00;;;;5033167;28;20278;-55
2023/06/10 07:59:36;;;;;;;1.27;1.20;;;22.00;42.00;21.90;95776.00;;;;5033292;28;20185;-56
2023/06/10 08:02:04;;;;;;;1.25;1.15;;;22.20;40.60;21.80;95775.00;;;;5033201;28;20193;-54
2023/06/10 08:04:31;;;;;;;0.95;0.95;;;22.20;39.70;22.00;95779.00;;;;5033275;28;20275;-54
2023/06/10 08:06:58;;;;;;;1.15;1.15;;;22.40;39.60;22.10;95782.00;;;;5033335;28;20211;-54
2023/06/10 08:09:25;;;;;;;1.00;1.00;;;22.40;40.10;22.20;95779.00;;;;5033108;28;20201;-54
2023/06/10 08:11:53;;;;;;;2.80;1.98;;;22.50;39.30;22.40;95777.00;;;;5033010;28;20221;-54
2023/06/10 08:14:21;;;;;;;1.10;1.10;;;22.70;39.30;22.50;95771.00;;;;5033113;28;20193;-54
2023/06/10 08:16:48;;;;;;;1.27;1.17;;;22.80;38.30;22.60;95779.00;;;;5033282;28;20583;-54
2023/06/10 08:19:15;;;;;;;1.48;1.45;;;23.00;38.10;22.50;95775.00;;;;5033496;28;20185;-54
2023/06/10 08:21:42;;;;;;;0.88;0.88;;;22.80;37.60;22.40;95775.00;;;;5033429;28;20217;-54
2023/06/10 08:24:10;;;;;;;1.60;1.50;;;22.90;37.90;22.50;95772.00;;;;5037425;28;20189;-55
2023/06/10 08:26:38;;;;;;;1.33;1.23;;;22.90;38.10;22.60;95776.00;;;;5037443;28;20185;-54
2023/06/10 08:29:05;;;;;;;0.70;0.70;;;23.00;37.70;22.70;95770.00;;;;5037262;28;20180;-54
2023/06/10 08:31:34;;;;;;;1.13;1.02;;;23.00;38.70;23.00;95776.00;;;;5037369;28;20231;-54
2023/06/10 08:34:01;;;;;;;0.80;0.80;;;23.30;36.40;23.10;95772.00;;;;5037064;28;20189;-54
2023/06/10 08:36:28;;;;;;;0.93;0.93;;;23.40;35.70;23.10;95777.00;;;;5037488;28;20195;-54
2023/06/10 08:38:56;;;;;;;2.15;1.42;;;23.50;35.40;23.20;95772.00;;;;5035640;28;20251;-54
2023/06/10 08:41:26;;;;;;;1.00;1.00;;;23.60;35.10;23.20;95776.00;;;;5037174;28;20562;-54
2023/06/10 08:44:04;;;;;;;1.20;1.20;;;23.60;35.10;23.20;95781.00;;;;5037164;28;20181;-54
2023/06/10 08:46:34;;;;;;;1.27;1.23;;;23.60;35.50;23.30;95782.00;;;;5037054;28;20192;-54
2023/06/10 08:49:07;;;;;;;0.50;0.50;;;23.70;35.50;23.20;95771.00;;;;5036808;28;20632;-56
2023/06/10 08:51:37;;;;;;;1.48;1.38;;;23.60;35.60;23.30;95779.00;;;;5036728;28;20209;-54
2023/06/10 08:54:15;;;;;;;0.73;0.73;;;23.70;35.90;23.40;95774.00;;;;5036944;28;20188;-54
2023/06/10 08:56:44;;;;;;;1.25;1.25;;;23.80;35.60;23.50;95776.00;;;;5036891;28;20221;-53
2023/06/10 08:59:12;;;;;;;1.67;1.58;;;23.90;35.90;23.40;95781.00;;;;5036830;28;20197;-56
2023/06/10 09:01:41;;;;;;;1.48;1.42;;;23.80;34.50;23.30;95779.00;;;;5036515;28;20185;-54
2023/06/10 09:04:08;;;;;;;1.60;1.50;;;23.80;35.20;23.20;95777.00;;;;5036450;28;20668;-54
2023/06/10 09:06:37;;;;;;;1.02;1.02;;;23.60;35.70;23.50;95778.00;;;;5036708;28;20197;-54
2023/06/10 09:09:07;;;;;;;1.13;0.98;;;23.80;35.20;23.30;95781.00;;;;5036639;28;20660;-54
2023/06/10 09:11:34;;;;;;;1.52;1.42;;;23.80;35.50;23.60;95769.00;;;;5036674;28;20192;-54
2023/06/10 09:14:01;;;;;;;1.30;1.23;;;23.90;35.30;23.70;95779.00;;;;5036609;28;20264;-54
2023/06/10 09:16:29;;;;;;;0.88;0.88;;;24.10;36.20;23.80;95782.00;;;;5036265;28;20184;-54
2023/06/10 09:18:58;;;;;;;1.25;1.25;;;24.20;34.30;24.00;95773.00;;;;5036406;28;20192;-54
2023/06/10 09:21:26;;;;;;;0.95;0.95;;;24.30;34.70;24.00;95772.00;;;;5034964;28;20198;-54
2023/06/10 09:23:53;;;;;;;1.40;0.93;;;24.30;34.40;23.80;95773.00;;;;5036425;28;20220;-55
2023/06/10 09:26:20;;;;;;;0.65;0.65;;;24.30;33.70;23.70;95779.00;;;;5036043;28;20193;-55
2023/06/10 09:28:50;;;;;;;0.65;0.65;;;24.20;34.60;24.20;95776.00;;;;5035985;28;20200;-54
2023/06/10 09:31:21;;;;;;;1.08;1.08;;;24.60;34.10;24.50;95775.00;;;;5035997;28;20239;-54
2023/06/10 09:33:49;;;;;;;1.05;1.05;;;24.70;33.90;24.40;95775.00;;;;5035500;28;20205;-54
2023/06/10 09:36:24;;;;;;;1.05;1.05;;;24.80;32.50;24.30;95775.00;;;;5035894;28;20193;-54
2023/06/10 09:38:51;;;;;;;0.80;0.80;;;24.80;32.20;24.10;95773.00;;;;5036156;28;20177;-54
2023/06/10 09:41:18;;;;;;;1.10;1.02;;;24.60;32.60;24.50;95770.00;;;;5035839;28;20656;-54
2023/06/10 09:43:48;;;;;;;0.90;0.90;;;24.80;33.10;24.50;95768.00;;;;5036059;28;20561;-54
2023/06/10 09:46:17;;;;;;;1.50;1.40;;;24.80;32.50;24.70;95771.00;;;;5036027;28;20239;-54
2023/06/10 09:48:46;;;;;;;1.35;1.30;;;25.00;31.90;24.70;95766.00;;;;5035655;28;20209;-54
2023/06/10 09:51:14;;;;;;;0.95;0.95;;;25.10;31.30;25.00;95774.00;;;;5035619;28;20348;-55
2023/06/10 09:53:43;;;;;;;1.65;1.55;;;25.30;32.70;24.70;95764.00;;;;5035578;28;20228;-54
2023/06/10 09:56:10;;;;;;;1.10;1.10;;;25.20;31.70;24.90;95771.00;;;;5035590;28;20275;-54
2023/06/10 09:58:43;;;;;;;0.82;0.82;;;25.20;32.00;25.00;95774.00;;;;5035735;28;20543;-54
2023/06/10 10:01:12;;;;;;;2.03;1.75;;;25.30;30.90;25.00;95766.00;;;;5035872;28;20275;-55
2023/06/10 10:03:47;;;;;;;1.65;1.13;;;25.40;31.40;25.40;95775.00;;;;5035535;28;20189;-55
2023/06/10 10:06:15;;;;;;;1.40;1.30;;;25.70;32.00;25.20;95771.00;;;;5035561;28;20188;-55
2023/06/10 10:08:44;;;;;;;0.90;0.90;;;25.60;31.80;25.30;95768.00;;;;5035278;28;20205;-55
2023/06/10 10:11:11;;;;;;;1.05;1.05;;;25.70;31.00;25.50;95775.00;;;;5035298;28;20200;-55
2023/06/10 10:13:39;;;;;;;0.85;0.85;;;25.80;31.40;25.30;95776.00;;;;5035193;28;20304;-56
2023/06/10 10:16:12;;;;;;;1.45;1.35;;;25.80;30.80;25.50;95746.00;;;;5035268;28;20189;-55
2023/06/10 10:18:44;;;;;;;1.42;1.35;;;25.80;30.60;25.50;95775.00;;;;5035181;28;20209;-55
2023/06/10 10:21:14;;;;;;;1.00;1.00;;;25.80;30.90;25.50;95772.00;;;;5035720;28;20209;-55
2023/06/10 10:23:53;;;;;;;1.27;1.27;;;25.80;30.80;25.70;95769.00;;;;5035391;28;20644;-56
2023/06/10 10:26:23;;;;;;;1.40;1.30;;;26.00;31.40;25.50;95760.00;;;;5034991;28;20658;-56
2023/06/10 10:29:06;;;;;;;2.47;1.23;;;25.80;30.60;25.40;95777.00;;;;5035120;28;20201;-54
2023/06/10 10:31:36;;;;;;;1.85;1.75;;;25.80;29.80;25.50;95762.00;;;;5034877;28;20173;-54
2023/06/10 10:34:09;;;;;;;1.20;1.17;;;25.80;30.10;25.70;95773.00;;;;5033600;28;20283;-54
2023/06/10 10:36:37;;;;;;;1.17;1.17;;;25.90;30.20;25.90;95749.00;;;;5035258;28;20188;-54
2023/06/10 10:39:07;;;;;;;1.55;1.45;;;26.10;29.30;26.10;95760.00;;;;5033507;28;20694;-54
2023/06/10 10:41:38;;;;;;;3.97;2.83;;;26.40;28.90;25.90;95764.00;;;;5034658;28;20193;-54
2023/06/10 10:44:08;;;;;;;1.00;1.00;;;26.30;29.50;26.50;95765.00;;;;5035260;28;20674;-55
2023/06/10 10:46:44;;;;;;;2.15;1.95;;;26.70;29.10;26.80;95754.00;;;;5033747;28;20204;-55
2023/06/10 10:49:15;;;;;;;1.02;1.02;;;27.00;29.80;26.60;95760.00;;;;5034633;28;20185;-55
2023/06/10 10:51:57;;;;;;;0.73;0.73;;;27.00;28.70;26.50;95768.00;;;;5035131;28;20189;-55
2023/06/10 10:54:32;;;;;;;0.80;0.80;;;26.90;28.10;26.40;95763.00;;;;5034452;28;20228;-56
2023/06/10 10:57:14;;;;;;;1.10;1.10;;;26.70;29.80;27.00;95741.00;;;;5033098;28;20568;-55
2023/06/10 10:59:55;;;;;;;5.40;1.30;;;27.10;28.70;27.10;95749.00;;;;5034631;28;20624;-55
2023/06/10 11:02:38;;;;;;;0.98;0.98;;;27.30;27.80;27.30;95745.00;;;;5035171;28;20177;-56
2023/06/10 11:05:07;;;;;;;2.08;1.95;;;;;27.50;95751.00;;;;5034578;28;20185;-55
2023/06/10 11:07:37;;;;;;;1.10;1.10;;;27.60;28.90;27.80;95760.00;;;;5034435;28;20555;-55
2023/06/10 11:10:09;;;;;;;1.30;1.15;;;27.90;26.30;27.30;95763.00;;;;5034483;28;20192;-55
2023/06/10 11:12:54;;;;;;;1.05;1.05;;;27.70;26.50;27.10;95739.00;;;;5032789;28;20282;-56